createdAt,value
2019-02-11T00:01:27.436Z,0.72
2019-02-11T00:03:59.693Z,0.72
2019-02-11T00:06:27.786Z,0.60
2019-02-11T00:08:57.146Z,0.98
2019-02-11T00:11:26.504Z,0.60
2019-02-11T00:13:55.866Z,0.60
2019-02-11T00:16:25.296Z,0.70
2019-02-11T00:18:54.654Z,0.62
2019-02-11T00:21:24.014Z,0.80
2019-02-11T00:23:53.386Z,0.60
2019-02-11T00:26:22.758Z,0.50
2019-02-11T00:28:52.130Z,0.68
2019-02-11T00:31:21.563Z,0.53
2019-02-11T00:33:51.143Z,0.60
2019-02-11T00:36:20.503Z,0.65
2019-02-11T00:38:49.878Z,0.70
2019-02-11T00:41:19.246Z,0.60
2019-02-11T00:43:48.605Z,0.53
2019-02-11T00:46:17.889Z,0.40
2019-02-11T00:48:47.365Z,0.68
2019-02-11T00:51:16.719Z,0.60
2019-02-11T00:53:47.741Z,0.47
2019-02-11T00:58:45.895Z,0.53
2019-02-11T01:01:15.261Z,0.50
2019-02-11T01:03:45.690Z,0.60
2019-02-11T01:06:16.018Z,0.60
2019-02-11T01:08:45.384Z,0.50
2019-02-11T01:11:14.742Z,0.70
2019-02-11T01:13:44.115Z,0.50
2019-02-11T01:16:13.498Z,0.60
2019-02-11T01:18:42.855Z,0.70
2019-02-11T01:21:12.209Z,0.40
2019-02-11T01:23:41.510Z,0.40
2019-02-11T01:26:10.871Z,0.42
2019-02-11T01:28:40.258Z,0.50
2019-02-11T01:31:09.618Z,0.40
2019-02-11T01:33:38.924Z,0.50
2019-02-11T01:36:08.283Z,0.50
2019-02-11T01:38:37.679Z,0.40
2019-02-11T01:41:07.150Z,0.47
2019-02-11T01:43:36.506Z,0.40
2019-02-11T01:46:05.862Z,0.40
2019-02-11T01:48:35.252Z,0.40
2019-02-11T01:51:04.694Z,0.50
2019-02-11T01:53:34.055Z,0.30
2019-02-11T01:56:03.422Z,0.42
2019-02-11T01:58:32.777Z,0.40
2019-02-11T02:01:02.135Z,0.40
2019-02-11T02:03:31.495Z,0.50
2019-02-11T02:06:00.853Z,0.50
2019-02-11T02:08:30.216Z,0.37
2019-02-11T02:10:59.579Z,0.60
2019-02-11T02:13:28.936Z,0.57
2019-02-11T02:15:58.302Z,0.40
2019-02-11T02:18:27.666Z,0.40
2019-02-11T02:20:57.026Z,0.30
2019-02-11T02:23:26.386Z,0.45
2019-02-11T02:25:55.750Z,0.40
2019-02-11T02:28:25.111Z,0.30
2019-02-11T02:30:54.479Z,0.30
2019-02-11T02:33:23.890Z,0.33
2019-02-11T02:35:53.223Z,0.33
2019-02-11T02:38:22.590Z,0.30
2019-02-11T02:40:51.953Z,0.40
2019-02-11T02:43:21.309Z,0.33
2019-02-11T02:45:50.670Z,0.33
2019-02-11T02:48:19.953Z,0.28
2019-02-11T02:50:49.310Z,0.40
2019-02-11T02:53:18.754Z,0.55
2019-02-11T02:55:48.410Z,0.30
2019-02-11T02:58:17.766Z,0.42
2019-02-11T03:00:47.131Z,0.30
2019-02-11T03:03:16.486Z,0.50
2019-02-11T03:05:45.847Z,0.30
2019-02-11T03:08:15.210Z,0.25
2019-02-11T03:10:44.581Z,0.20
2019-02-11T03:13:13.946Z,0.30
2019-02-11T03:15:43.251Z,0.40
2019-02-11T03:18:12.605Z,0.42
2019-02-11T03:20:41.990Z,0.30
2019-02-11T03:23:11.288Z,0.30
2019-02-11T03:25:40.670Z,0.47
2019-02-11T03:28:10.022Z,0.30
2019-02-11T03:30:39.806Z,0.40
2019-02-11T03:33:09.151Z,0.30
2019-02-11T03:35:38.511Z,0.40
2019-02-11T03:38:07.874Z,0.30
2019-02-11T03:40:37.227Z,0.30
2019-02-11T03:43:06.703Z,0.17
2019-02-11T03:45:36.065Z,0.50
2019-02-11T03:48:05.424Z,0.30
2019-02-11T03:50:34.780Z,0.20
2019-02-11T03:53:04.143Z,0.20
2019-02-11T03:55:33.568Z,0.35
2019-02-11T03:58:02.930Z,0.28
2019-02-11T04:00:32.302Z,0.30
2019-02-11T04:03:01.646Z,0.20
2019-02-11T04:05:31.006Z,0.20
2019-02-11T04:08:00.366Z,0.30
2019-02-11T04:10:29.731Z,0.30
2019-02-11T04:12:59.099Z,0.20
2019-02-11T04:15:28.449Z,0.35
2019-02-11T04:17:57.811Z,0.20
2019-02-11T04:20:27.166Z,0.30
2019-02-11T04:22:56.531Z,0.30
2019-02-11T04:25:25.898Z,0.30
2019-02-11T04:27:55.182Z,0.40
2019-02-11T04:30:24.538Z,0.17
2019-02-11T04:32:53.897Z,0.30
2019-02-11T04:35:23.259Z,0.30
2019-02-11T04:37:52.624Z,0.30
2019-02-11T04:40:22.002Z,0.20
2019-02-11T04:42:51.363Z,0.33
2019-02-11T04:45:20.717Z,0.23
2019-02-11T04:47:50.049Z,0.40
2019-02-11T04:50:19.442Z,0.23
2019-02-11T04:52:48.818Z,0.20
2019-02-11T04:55:18.199Z,0.30
2019-02-11T04:57:47.560Z,0.20
2019-02-11T05:00:16.923Z,0.20
2019-02-11T05:02:46.282Z,0.25
2019-02-11T05:05:15.637Z,0.20
2019-02-11T05:07:45.074Z,0.20
2019-02-11T05:10:16.191Z,0.30
2019-02-11T05:12:45.542Z,0.30
2019-02-11T05:15:14.900Z,0.17
2019-02-11T05:17:44.266Z,0.20
2019-02-11T05:20:13.702Z,0.20
2019-02-11T05:22:43.092Z,0.30
2019-02-11T05:25:12.420Z,0.20
2019-02-11T05:27:41.791Z,0.20
2019-02-11T05:30:11.693Z,0.35
2019-02-11T05:32:41.419Z,0.20
2019-02-11T05:35:10.831Z,0.20
2019-02-11T05:37:41.268Z,0.30
2019-02-11T05:40:12.255Z,0.30
2019-02-11T05:42:41.618Z,0.33
2019-02-11T05:45:10.911Z,0.25
2019-02-11T05:47:40.264Z,0.30
2019-02-11T05:50:11.363Z,0.40
2019-02-11T05:52:40.734Z,0.30
2019-02-11T05:55:10.086Z,0.30
2019-02-11T05:57:39.477Z,0.20
2019-02-11T06:00:12.146Z,0.30
2019-02-11T06:02:41.534Z,0.40
